createdAt,value
2022-10-09T00:00:38.597Z,82.00
2022-10-09T00:03:08.588Z,81.00
2022-10-09T00:05:08.561Z,81.00
2022-10-09T00:07:08.596Z,81.00
2022-10-09T00:09:08.550Z,81.00
2022-10-09T00:11:08.562Z,81.00
2022-10-09T00:13:08.561Z,81.00
2022-10-09T00:15:08.538Z,81.00
2022-10-09T00:17:08.615Z,81.00
2022-10-09T00:19:08.569Z,81.00
2022-10-09T00:21:08.622Z,81.00
2022-10-09T00:23:08.586Z,81.00
2022-10-09T00:25:08.626Z,81.00
2022-10-09T00:27:08.566Z,81.00
2022-10-09T00:29:08.562Z,81.00
2022-10-09T00:31:08.626Z,81.00
2022-10-09T00:33:08.575Z,81.00
2022-10-09T00:35:08.558Z,81.00
2022-10-09T00:37:08.562Z,82.00
2022-10-09T00:39:08.585Z,82.00
2022-10-09T00:41:08.530Z,82.00
2022-10-09T00:43:08.545Z,82.00
2022-10-09T00:45:08.572Z,82.00
2022-10-09T00:47:08.553Z,82.00
2022-10-09T00:49:08.592Z,82.00
2022-10-09T00:51:08.554Z,82.00
2022-10-09T00:53:08.592Z,82.00
2022-10-09T00:55:08.592Z,82.00
2022-10-09T00:57:08.713Z,82.00
2022-10-09T00:59:08.544Z,82.00
2022-10-09T01:01:08.621Z,82.00
2022-10-09T01:03:08.620Z,82.00
2022-10-09T01:05:08.594Z,82.00
2022-10-09T01:07:08.588Z,82.00
2022-10-09T01:09:08.605Z,82.00
2022-10-09T01:11:08.541Z,82.00
2022-10-09T01:13:08.592Z,82.00
2022-10-09T01:15:08.592Z,82.00
2022-10-09T01:17:08.625Z,82.00
2022-10-09T01:19:08.551Z,82.00
2022-10-09T01:21:08.620Z,82.00
2022-10-09T01:23:08.601Z,82.00
2022-10-09T01:25:08.599Z,82.00
2022-10-09T01:27:08.548Z,82.00
2022-10-09T01:29:08.615Z,82.00
2022-10-09T01:31:08.660Z,82.00
2022-10-09T01:33:08.566Z,82.00
2022-10-09T01:35:08.560Z,82.00
2022-10-09T01:37:08.650Z,82.00
2022-10-09T01:39:08.600Z,82.00
2022-10-09T01:41:08.601Z,82.00
2022-10-09T01:43:08.595Z,82.00
2022-10-09T01:45:08.670Z,82.00
2022-10-09T01:47:08.565Z,82.00
2022-10-09T01:49:08.694Z,82.00
2022-10-09T01:51:08.654Z,82.00
2022-10-09T01:53:08.605Z,82.00
2022-10-09T01:55:38.696Z,82.00
2022-10-09T01:57:38.579Z,82.00
2022-10-09T01:59:38.676Z,82.00
2022-10-09T02:01:38.667Z,81.00
2022-10-09T02:03:38.740Z,81.00
2022-10-09T02:05:38.685Z,81.00
2022-10-09T02:07:38.673Z,81.00
2022-10-09T02:09:38.642Z,81.00
2022-10-09T02:11:38.622Z,80.00
2022-10-09T02:13:38.584Z,80.00
2022-10-09T02:17:38.639Z,79.00
2022-10-09T02:21:38.681Z,79.00
2022-10-09T02:25:46.524Z,79.00
2022-10-09T02:27:46.503Z,79.00
2022-10-09T02:29:46.500Z,79.00
2022-10-09T02:31:46.565Z,79.00
2022-10-09T02:33:46.473Z,79.00
2022-10-09T02:35:46.478Z,79.00
2022-10-09T02:37:46.452Z,79.00
2022-10-09T02:39:46.475Z,79.00
2022-10-09T02:41:46.520Z,79.00
2022-10-09T02:43:46.453Z,79.00
2022-10-09T02:45:46.476Z,79.00
2022-10-09T02:47:46.482Z,79.00
2022-10-09T02:49:46.477Z,79.00
2022-10-09T02:51:46.573Z,79.00
2022-10-09T02:53:46.497Z,79.00
2022-10-09T02:55:46.479Z,79.00
2022-10-09T02:57:46.460Z,80.00
2022-10-09T02:59:46.527Z,80.00
2022-10-09T03:01:46.614Z,80.00
2022-10-09T03:03:46.463Z,80.00
2022-10-09T03:05:46.568Z,80.00
2022-10-09T03:07:46.520Z,80.00
2022-10-09T03:09:46.524Z,80.00
2022-10-09T03:11:46.468Z,80.00
2022-10-09T03:13:46.490Z,80.00
2022-10-09T03:15:46.579Z,80.00
2022-10-09T03:17:46.480Z,80.00
2022-10-09T03:19:46.525Z,80.00
2022-10-09T03:21:46.526Z,80.00
2022-10-09T03:23:46.477Z,80.00
2022-10-09T03:25:46.493Z,80.00
2022-10-09T03:27:46.512Z,80.00
2022-10-09T03:29:46.477Z,80.00
2022-10-09T03:31:52.443Z,80.00
2022-10-09T03:33:46.480Z,80.00
2022-10-09T03:35:46.506Z,80.00
2022-10-09T03:37:46.512Z,80.00
2022-10-09T03:39:46.497Z,80.00
2022-10-09T03:41:46.532Z,80.00
2022-10-09T03:43:46.556Z,80.00
2022-10-09T03:45:50.328Z,80.00
2022-10-09T03:47:46.565Z,80.00
2022-10-09T03:49:46.521Z,81.00
2022-10-09T03:51:46.537Z,81.00
2022-10-09T03:53:46.535Z,81.00
2022-10-09T03:55:46.558Z,81.00
2022-10-09T03:57:46.528Z,81.00
2022-10-09T03:59:46.529Z,80.00
2022-10-09T04:01:46.505Z,80.00
2022-10-09T04:03:46.624Z,80.00
2022-10-09T04:05:46.547Z,80.00
2022-10-09T04:07:46.524Z,80.00
2022-10-09T04:09:46.513Z,80.00
2022-10-09T04:11:46.584Z,80.00
2022-10-09T04:13:46.509Z,79.00
2022-10-09T04:15:46.562Z,79.00
2022-10-09T04:17:46.508Z,79.00
2022-10-09T04:20:16.521Z,79.00
2022-10-09T04:22:16.542Z,79.00
2022-10-09T04:24:16.540Z,79.00
2022-10-09T04:26:16.578Z,79.00
2022-10-09T04:28:16.606Z,79.00
2022-10-09T04:30:16.572Z,79.00
2022-10-09T04:32:16.527Z,79.00
2022-10-09T04:34:16.598Z,79.00
2022-10-09T04:36:16.536Z,79.00
2022-10-09T04:38:16.531Z,79.00
2022-10-09T04:40:16.588Z,79.00
2022-10-09T04:42:16.540Z,79.00
2022-10-09T04:44:16.539Z,79.00
2022-10-09T04:46:16.710Z,79.00
2022-10-09T04:48:16.569Z,79.00
2022-10-09T04:50:16.559Z,79.00
2022-10-09T04:52:16.576Z,79.00
2022-10-09T04:54:16.546Z,80.00
2022-10-09T04:56:16.771Z,80.00
2022-10-09T04:58:16.570Z,80.00
2022-10-09T05:00:16.545Z,80.00
2022-10-09T05:02:16.583Z,80.00
2022-10-09T05:04:16.658Z,80.00
2022-10-09T05:06:16.586Z,80.00
2022-10-09T05:08:16.571Z,80.00
2022-10-09T05:10:16.541Z,80.00
2022-10-09T05:12:16.590Z,80.00
2022-10-09T05:14:16.604Z,80.00
2022-10-09T05:16:16.658Z,80.00
2022-10-09T05:18:16.608Z,80.00
2022-10-09T05:20:16.556Z,80.00
2022-10-09T05:22:16.564Z,80.00
2022-10-09T05:24:16.574Z,80.00
2022-10-09T05:26:16.583Z,80.00
2022-10-09T05:28:16.636Z,80.00
2022-10-09T05:30:16.585Z,80.00
2022-10-09T05:32:16.626Z,80.00
2022-10-09T05:34:16.570Z,80.00
2022-10-09T05:36:16.555Z,79.00
2022-10-09T05:38:16.558Z,79.00
2022-10-09T05:40:16.557Z,79.00
2022-10-09T05:42:16.613Z,79.00
2022-10-09T05:44:16.561Z,79.00
2022-10-09T05:46:16.647Z,79.00
2022-10-09T05:48:16.686Z,79.00
2022-10-09T05:50:16.601Z,79.00
2022-10-09T05:52:16.589Z,79.00
2022-10-09T05:54:16.621Z,79.00
2022-10-09T05:56:16.599Z,79.00
2022-10-09T05:58:16.569Z,79.00
2022-10-09T06:00:16.665Z,79.00
2022-10-09T06:02:16.621Z,79.00
2022-10-09T06:04:16.736Z,79.00
2022-10-09T06:06:16.575Z,79.00
2022-10-09T06:08:16.586Z,79.00
2022-10-09T06:10:16.578Z,79.00
2022-10-09T06:12:16.736Z,79.00
2022-10-09T06:14:16.636Z,79.00
2022-10-09T06:16:46.695Z,79.00
2022-10-09T06:18:49.062Z,79.00
2022-10-09T06:20:46.605Z,79.00
2022-10-09T06:22:46.895Z,79.00
2022-10-09T06:24:46.626Z,79.00
2022-10-09T06:26:46.625Z,79.00
2022-10-09T06:28:46.671Z,79.00
2022-10-09T06:30:46.703Z,79.00
2022-10-09T06:32:46.939Z,79.00
2022-10-09T06:34:46.594Z,80.00
2022-10-09T06:36:46.657Z,79.00
2022-10-09T06:38:46.653Z,79.00
2022-10-09T06:40:46.600Z,79.00
2022-10-09T06:42:49.433Z,79.00
2022-10-09T06:44:46.622Z,79.00
2022-10-09T06:46:46.600Z,79.00
2022-10-09T06:48:46.697Z,79.00
2022-10-09T06:50:46.641Z,79.00
2022-10-09T06:52:46.978Z,79.00
2022-10-09T06:54:46.598Z,79.00
2022-10-09T06:56:46.612Z,79.00
2022-10-09T06:58:46.671Z,78.00
2022-10-09T07:00:46.672Z,78.00
2022-10-09T07:02:47.087Z,78.00
2022-10-09T07:04:46.606Z,78.00
2022-10-09T07:06:46.619Z,77.00
2022-10-09T07:08:46.632Z,77.00
2022-10-09T07:10:46.745Z,77.00
2022-10-09T07:12:47.004Z,76.00
2022-10-09T07:14:46.700Z,75.00
2022-10-09T07:16:46.676Z,75.00
2022-10-09T07:18:46.737Z,75.00
2022-10-09T07:20:46.664Z,75.00
2022-10-09T07:22:47.036Z,73.00
2022-10-09T07:24:46.671Z,73.00
2022-10-09T07:26:46.739Z,72.00
2022-10-09T07:28:46.758Z,72.00
2022-10-09T07:30:46.673Z,72.00
2022-10-09T07:32:47.057Z,72.00
2022-10-09T07:34:46.705Z,72.00
2022-10-09T07:36:46.654Z,72.00
2022-10-09T07:38:47.050Z,72.00
2022-10-09T07:40:46.784Z,72.00
2022-10-09T07:42:47.055Z,72.00
2022-10-09T07:44:46.634Z,71.00
2022-10-09T07:46:46.745Z,71.00
2022-10-09T07:48:46.653Z,72.00
2022-10-09T07:50:46.672Z,72.00
2022-10-09T07:52:49.884Z,72.00
2022-10-09T07:54:47.752Z,71.00
2022-10-09T07:56:46.811Z,71.00
2022-10-09T07:58:46.681Z,71.00
2022-10-09T08:00:46.696Z,71.00
2022-10-09T08:02:47.005Z,71.00
2022-10-09T08:04:46.724Z,71.00
2022-10-09T08:06:46.775Z,71.00
2022-10-09T08:08:46.728Z,71.00
2022-10-09T08:10:46.768Z,71.00
2022-10-09T08:13:16.773Z,70.00
2022-10-09T08:15:16.716Z,70.00
2022-10-09T08:17:16.703Z,70.00
2022-10-09T08:19:16.732Z,70.00
2022-10-09T08:21:16.726Z,70.00
2022-10-09T08:23:16.762Z,70.00
2022-10-09T08:25:16.663Z,70.00
2022-10-09T08:27:16.785Z,70.00
2022-10-09T08:29:16.681Z,70.00
2022-10-09T08:31:16.797Z,70.00
2022-10-09T08:33:16.714Z,70.00
2022-10-09T08:35:16.790Z,70.00
2022-10-09T08:37:16.764Z,70.00
2022-10-09T08:39:16.841Z,70.00
2022-10-09T08:41:16.671Z,70.00
2022-10-09T08:43:16.669Z,69.00
2022-10-09T08:45:16.724Z,69.00
2022-10-09T08:47:16.828Z,69.00
2022-10-09T08:49:16.822Z,69.00
2022-10-09T08:51:16.875Z,69.00
2022-10-09T08:53:16.774Z,68.00
2022-10-09T08:55:16.784Z,69.00
2022-10-09T08:57:16.835Z,69.00
2022-10-09T08:59:16.790Z,69.00
2022-10-09T09:01:16.742Z,68.00
2022-10-09T09:03:16.917Z,68.00
2022-10-09T09:05:16.784Z,68.00
2022-10-09T09:07:16.780Z,67.00
2022-10-09T09:09:16.767Z,67.00
2022-10-09T09:11:21.240Z,67.00
2022-10-09T09:13:16.852Z,66.00
2022-10-09T09:15:16.844Z,66.00
2022-10-09T09:17:16.809Z,66.00
2022-10-09T09:21:09.320Z,66.00
2022-10-09T09:23:09.314Z,65.00
2022-10-09T09:25:09.338Z,65.00
2022-10-09T09:27:09.348Z,65.00
2022-10-09T09:29:09.253Z,64.00
2022-10-09T09:31:09.473Z,64.00
2022-10-09T09:33:09.286Z,64.00
2022-10-09T09:35:09.316Z,64.00
2022-10-09T09:37:09.310Z,63.00
2022-10-09T09:41:39.374Z,63.00
2022-10-09T09:43:39.379Z,63.00
2022-10-09T09:45:39.291Z,63.00
2022-10-09T09:47:39.434Z,62.00
2022-10-09T09:49:39.280Z,61.00
2022-10-09T09:51:39.375Z,61.00
2022-10-09T09:53:39.367Z,61.00
2022-10-09T09:55:39.350Z,61.00
2022-10-09T09:57:39.383Z,60.00
2022-10-09T09:59:39.382Z,60.00
2022-10-09T10:01:39.374Z,60.00
2022-10-09T10:03:39.311Z,60.00
2022-10-09T10:05:39.374Z,60.00
2022-10-09T10:07:39.365Z,60.00
2022-10-09T10:09:39.358Z,60.00
2022-10-09T10:11:39.366Z,60.00
2022-10-09T10:13:39.410Z,59.00
2022-10-09T10:15:39.414Z,59.00
2022-10-09T10:17:39.302Z,59.00
2022-10-09T10:19:39.312Z,59.00
2022-10-09T10:21:39.379Z,59.00
2022-10-09T10:23:39.386Z,58.00
2022-10-09T10:25:39.379Z,59.00
2022-10-09T10:27:39.411Z,59.00
2022-10-09T10:29:39.302Z,58.00
2022-10-09T10:31:39.373Z,58.00
2022-10-09T10:33:39.428Z,58.00
2022-10-09T10:35:39.313Z,58.00
2022-10-09T10:37:39.336Z,58.00
2022-10-09T10:39:39.341Z,58.00
2022-10-09T10:41:39.422Z,58.00
2022-10-09T10:43:39.427Z,58.00
2022-10-09T10:45:39.410Z,58.00
2022-10-09T10:47:39.354Z,57.00
2022-10-09T10:49:39.335Z,57.00
2022-10-09T10:51:39.520Z,57.00
2022-10-09T10:53:39.406Z,57.00
2022-10-09T10:55:39.378Z,58.00
2022-10-09T10:57:39.451Z,57.00
2022-10-09T10:59:39.416Z,57.00
2022-10-09T11:01:39.461Z,57.00
2022-10-09T11:03:39.405Z,58.00
2022-10-09T11:05:39.347Z,58.00
2022-10-09T11:07:39.362Z,58.00
2022-10-09T11:09:39.401Z,58.00
2022-10-09T11:11:39.423Z,58.00
2022-10-09T11:13:39.464Z,58.00
2022-10-09T11:15:39.427Z,58.00
2022-10-09T11:17:39.430Z,58.00
2022-10-09T11:19:44.459Z,58.00
2022-10-09T11:21:39.380Z,57.00
2022-10-09T11:23:39.670Z,57.00
2022-10-09T11:25:39.428Z,58.00
2022-10-09T11:27:39.437Z,58.00
2022-10-09T11:29:41.054Z,57.00
2022-10-09T11:31:39.475Z,57.00
2022-10-09T11:33:39.467Z,58.00
2022-10-09T11:35:39.532Z,58.00
2022-10-09T11:37:39.437Z,57.00
2022-10-09T11:39:39.392Z,57.00
2022-10-09T11:41:39.374Z,57.00
2022-10-09T11:44:09.422Z,57.00
2022-10-09T11:46:09.554Z,57.00
2022-10-09T11:48:09.364Z,59.00
2022-10-09T11:50:09.361Z,59.00
2022-10-09T11:52:09.391Z,58.00
2022-10-09T11:54:11.068Z,58.00
2022-10-09T11:56:09.450Z,58.00
2022-10-09T11:58:09.446Z,57.00
2022-10-09T12:00:09.478Z,57.00
2022-10-09T12:02:09.537Z,57.00
2022-10-09T12:04:09.497Z,57.00
2022-10-09T12:06:09.527Z,58.00
2022-10-09T12:08:10.001Z,58.00
2022-10-09T12:10:09.495Z,57.00
2022-10-09T12:12:09.366Z,58.00
2022-10-09T12:14:09.463Z,58.00
2022-10-09T12:16:09.561Z,58.00
2022-10-09T12:18:09.524Z,58.00
2022-10-09T12:20:09.437Z,58.00
2022-10-09T12:22:09.546Z,58.00
2022-10-09T12:24:09.405Z,57.00
2022-10-09T12:26:09.454Z,57.00
2022-10-09T12:28:09.513Z,57.00
2022-10-09T12:30:09.490Z,57.00
2022-10-09T12:32:09.513Z,57.00
2022-10-09T12:34:09.489Z,57.00
2022-10-09T12:36:09.539Z,57.00
2022-10-09T12:38:09.537Z,57.00
2022-10-09T12:40:09.403Z,57.00
2022-10-09T12:42:09.516Z,57.00
2022-10-09T12:44:09.480Z,57.00
2022-10-09T12:46:09.617Z,57.00
2022-10-09T12:48:09.531Z,58.00
2022-10-09T12:50:09.511Z,58.00
2022-10-09T12:52:09.416Z,57.00
2022-10-09T12:54:09.457Z,57.00
2022-10-09T12:56:10.469Z,57.00
2022-10-09T12:58:09.493Z,57.00
2022-10-09T13:00:09.493Z,58.00
2022-10-09T13:02:09.662Z,58.00
2022-10-09T13:04:09.449Z,59.00
2022-10-09T13:06:09.555Z,59.00
2022-10-09T13:08:09.545Z,58.00
2022-10-09T13:10:09.408Z,59.00
2022-10-09T13:12:09.520Z,59.00
2022-10-09T13:14:09.416Z,59.00
2022-10-09T13:16:09.410Z,58.00
2022-10-09T13:18:09.422Z,59.00
2022-10-09T13:20:09.493Z,58.00
2022-10-09T13:22:09.537Z,58.00
2022-10-09T13:24:09.538Z,58.00
2022-10-09T13:26:09.485Z,58.00
2022-10-09T13:28:09.484Z,58.00
2022-10-09T13:30:09.517Z,59.00
2022-10-09T13:32:09.522Z,59.00
2022-10-09T13:34:09.515Z,59.00
2022-10-09T13:36:09.516Z,59.00
2022-10-09T13:38:09.436Z,59.00
2022-10-09T13:40:09.570Z,59.00
2022-10-09T13:42:09.452Z,59.00
2022-10-09T13:44:09.492Z,59.00
2022-10-09T13:46:39.574Z,59.00
2022-10-09T13:48:39.518Z,60.00
2022-10-09T13:50:39.598Z,60.00
2022-10-09T13:54:39.595Z,60.00
2022-10-09T13:56:39.476Z,60.00
2022-10-09T13:58:39.476Z,60.00
2022-10-09T14:00:39.490Z,60.00
2022-10-09T14:02:39.583Z,60.00
2022-10-09T14:04:39.544Z,60.00
2022-10-09T14:06:39.661Z,60.00
2022-10-09T14:08:39.576Z,60.00
2022-10-09T14:10:39.615Z,60.00
2022-10-09T14:12:39.551Z,60.00
2022-10-09T14:14:39.503Z,61.00
2022-10-09T14:16:39.515Z,61.00
2022-10-09T14:18:39.565Z,61.00
2022-10-09T14:20:39.472Z,61.00
2022-10-09T14:22:39.602Z,61.00
2022-10-09T14:24:39.613Z,60.00
2022-10-09T14:26:39.487Z,60.00
2022-10-09T14:28:39.546Z,61.00
2022-10-09T14:30:39.543Z,61.00
2022-10-09T14:32:40.641Z,61.00
2022-10-09T14:34:39.675Z,61.00
2022-10-09T14:36:39.603Z,61.00
2022-10-09T14:38:39.560Z,61.00
2022-10-09T14:40:40.500Z,61.00
2022-10-09T14:42:39.545Z,61.00
2022-10-09T14:44:39.588Z,62.00
2022-10-09T14:46:39.543Z,62.00
2022-10-09T14:48:39.550Z,62.00
2022-10-09T14:50:39.580Z,62.00
2022-10-09T14:52:39.599Z,63.00
2022-10-09T14:54:39.625Z,63.00
2022-10-09T14:56:39.635Z,63.00
2022-10-09T14:58:39.488Z,63.00
2022-10-09T15:00:39.553Z,63.00
2022-10-09T15:02:39.672Z,63.00
2022-10-09T15:04:39.659Z,64.00
2022-10-09T15:06:40.616Z,64.00
2022-10-09T15:08:39.583Z,64.00
2022-10-09T15:10:39.634Z,64.00
2022-10-09T15:12:39.584Z,65.00
2022-10-09T15:14:39.531Z,65.00
2022-10-09T15:16:39.611Z,65.00
2022-10-09T15:18:39.564Z,65.00
2022-10-09T15:20:39.529Z,65.00
2022-10-09T15:22:39.624Z,65.00
2022-10-09T15:24:39.626Z,66.00
2022-10-09T15:26:39.701Z,66.00
2022-10-09T15:28:39.740Z,66.00
2022-10-09T15:30:39.808Z,66.00
2022-10-09T15:32:39.562Z,66.00
2022-10-09T15:34:41.145Z,66.00
2022-10-09T15:36:39.629Z,66.00
2022-10-09T15:38:39.598Z,66.00
2022-10-09T15:40:39.607Z,66.00
2022-10-09T15:43:09.556Z,67.00
2022-10-09T15:45:09.713Z,67.00
2022-10-09T15:47:09.620Z,67.00
2022-10-09T15:49:09.596Z,67.00
2022-10-09T15:51:09.648Z,67.00
2022-10-09T15:53:09.701Z,67.00
2022-10-09T15:55:09.620Z,67.00
2022-10-09T15:57:09.580Z,67.00
2022-10-09T15:59:09.697Z,67.00
2022-10-09T16:01:09.565Z,67.00
2022-10-09T16:03:09.629Z,67.00
2022-10-09T16:05:09.651Z,67.00
2022-10-09T16:07:09.634Z,67.00
2022-10-09T16:09:09.628Z,67.00
2022-10-09T16:13:09.682Z,68.00
2022-10-09T16:15:09.720Z,68.00
2022-10-09T16:17:11.462Z,68.00
2022-10-09T16:19:09.685Z,68.00
2022-10-09T16:21:09.528Z,68.00
2022-10-09T16:23:09.639Z,69.00
2022-10-09T16:25:09.637Z,69.00
2022-10-09T16:27:09.701Z,69.00
2022-10-09T16:29:09.754Z,69.00
2022-10-09T16:31:09.591Z,69.00
2022-10-09T16:33:12.614Z,69.00
2022-10-09T16:35:00.015Z,69.00
2022-10-09T16:37:00.036Z,69.00
2022-10-09T16:39:00.017Z,69.00
2022-10-09T16:41:02.256Z,69.00
2022-10-09T16:42:59.947Z,70.00
2022-10-09T16:45:00.077Z,70.00
2022-10-09T16:47:00.007Z,70.00
2022-10-09T16:49:00.124Z,70.00
2022-10-09T16:50:59.998Z,70.00
2022-10-09T16:53:00.053Z,70.00
2022-10-09T16:55:00.749Z,70.00
2022-10-09T16:57:00.083Z,70.00
2022-10-09T16:59:00.103Z,70.00
2022-10-09T17:01:00.116Z,71.00
2022-10-09T17:03:29.966Z,71.00
2022-10-09T17:05:30.314Z,71.00
2022-10-09T17:07:30.129Z,71.00
2022-10-09T17:09:30.071Z,71.00
2022-10-09T17:11:30.154Z,71.00
2022-10-09T17:13:30.032Z,71.00
2022-10-09T17:15:30.087Z,71.00
2022-10-09T17:17:29.988Z,71.00
2022-10-09T17:19:30.025Z,71.00
2022-10-09T17:21:34.115Z,71.00
2022-10-09T17:23:30.040Z,71.00
2022-10-09T17:25:30.045Z,71.00
2022-10-09T17:27:30.077Z,71.00
2022-10-09T17:29:30.083Z,71.00
2022-10-09T17:31:30.173Z,72.00
2022-10-09T17:33:30.109Z,72.00
2022-10-09T17:35:30.161Z,72.00
2022-10-09T17:37:30.035Z,72.00
2022-10-09T17:39:30.071Z,72.00
2022-10-09T17:41:30.085Z,72.00
2022-10-09T17:43:30.143Z,72.00
2022-10-09T17:45:30.115Z,72.00
2022-10-09T17:47:30.027Z,71.00
2022-10-09T17:49:30.019Z,72.00
2022-10-09T17:51:30.055Z,72.00
2022-10-09T17:53:30.061Z,72.00
2022-10-09T17:55:33.145Z,72.00
2022-10-09T17:57:30.106Z,72.00
2022-10-09T17:59:30.090Z,72.00
2022-10-09T18:01:30.091Z,72.00
2022-10-09T18:03:30.045Z,72.00
2022-10-09T18:05:29.980Z,72.00
2022-10-09T18:07:30.065Z,72.00
2022-10-09T18:09:30.085Z,72.00
2022-10-09T18:11:30.163Z,72.00
2022-10-09T18:13:30.119Z,73.00
2022-10-09T18:15:30.139Z,73.00
2022-10-09T18:17:30.013Z,73.00
2022-10-09T18:19:30.043Z,73.00
2022-10-09T18:21:30.041Z,73.00
2022-10-09T18:23:30.065Z,73.00
2022-10-09T18:25:30.079Z,73.00
2022-10-09T18:27:30.122Z,73.00
2022-10-09T18:29:30.129Z,73.00
2022-10-09T18:31:30.036Z,73.00
2022-10-09T18:33:30.002Z,73.00
2022-10-09T18:35:30.087Z,73.00
2022-10-09T18:37:30.128Z,73.00
2022-10-09T18:39:30.056Z,73.00
2022-10-09T18:41:30.155Z,74.00
2022-10-09T18:43:30.106Z,74.00
2022-10-09T18:45:30.151Z,74.00
2022-10-09T18:47:30.123Z,74.00
2022-10-09T18:49:30.080Z,74.00
2022-10-09T18:51:30.073Z,74.00
2022-10-09T18:53:30.113Z,74.00
2022-10-09T18:55:30.121Z,74.00
2022-10-09T18:57:30.123Z,74.00
2022-10-09T19:00:00.142Z,74.00
2022-10-09T19:02:00.106Z,74.00
2022-10-09T19:04:00.032Z,74.00
2022-10-09T19:06:00.069Z,74.00
2022-10-09T19:08:00.110Z,74.00
2022-10-09T19:10:00.135Z,74.00
2022-10-09T19:12:00.129Z,74.00
2022-10-09T19:14:00.189Z,74.00
2022-10-09T19:16:00.134Z,74.00
2022-10-09T19:18:00.053Z,74.00
2022-10-09T19:20:00.071Z,74.00
2022-10-09T19:22:00.121Z,74.00
2022-10-09T19:24:00.072Z,74.00
2022-10-09T19:26:00.064Z,74.00
2022-10-09T19:28:00.137Z,74.00
2022-10-09T19:30:00.037Z,74.00
2022-10-09T19:32:00.141Z,74.00
2022-10-09T19:34:00.052Z,74.00
2022-10-09T19:36:00.033Z,74.00
2022-10-09T19:38:00.122Z,74.00
2022-10-09T19:40:00.056Z,74.00
2022-10-09T19:42:00.190Z,74.00
2022-10-09T19:44:00.068Z,74.00
2022-10-09T19:46:00.048Z,74.00
2022-10-09T19:48:00.374Z,74.00
2022-10-09T19:50:00.139Z,74.00
2022-10-09T19:52:00.126Z,74.00
2022-10-09T19:54:00.082Z,74.00
2022-10-09T19:56:00.128Z,74.00
2022-10-09T19:58:00.061Z,74.00
2022-10-09T20:00:00.041Z,74.00
2022-10-09T20:02:00.070Z,74.00
2022-10-09T20:04:00.083Z,74.00
2022-10-09T20:06:00.077Z,74.00
2022-10-09T20:08:00.147Z,74.00
2022-10-09T20:10:00.126Z,74.00
2022-10-09T20:12:00.240Z,74.00
2022-10-09T20:14:00.081Z,74.00
2022-10-09T20:16:00.171Z,74.00
2022-10-09T20:18:00.094Z,73.00
2022-10-09T20:20:00.097Z,73.00
2022-10-09T20:22:00.111Z,73.00
2022-10-09T20:24:00.128Z,73.00
2022-10-09T20:26:00.157Z,73.00
2022-10-09T20:28:00.115Z,73.00
2022-10-09T20:30:00.132Z,73.00
2022-10-09T20:32:00.123Z,73.00
2022-10-09T20:34:00.124Z,73.00
2022-10-09T20:36:00.136Z,73.00
2022-10-09T20:38:00.110Z,73.00
2022-10-09T20:40:00.111Z,73.00
2022-10-09T20:42:00.173Z,73.00
2022-10-09T20:44:00.076Z,73.00
2022-10-09T20:46:00.111Z,73.00
2022-10-09T20:48:00.248Z,73.00
2022-10-09T20:50:00.098Z,73.00
2022-10-09T20:52:00.105Z,73.00
2022-10-09T20:54:00.188Z,73.00
2022-10-09T20:56:30.131Z,73.00
2022-10-09T20:58:30.160Z,73.00
2022-10-09T21:00:30.134Z,73.00
2022-10-09T21:02:30.153Z,73.00
2022-10-09T21:04:30.169Z,73.00
2022-10-09T21:06:30.155Z,73.00
2022-10-09T21:08:30.165Z,72.00
2022-10-09T21:10:30.112Z,72.00
2022-10-09T21:12:30.186Z,72.00
2022-10-09T21:14:30.098Z,72.00
2022-10-09T21:16:30.100Z,72.00
2022-10-09T21:18:30.097Z,72.00
2022-10-09T21:20:30.137Z,72.00
2022-10-09T21:22:30.110Z,72.00
2022-10-09T21:24:30.106Z,72.00
2022-10-09T21:26:30.161Z,72.00
2022-10-09T21:28:30.202Z,72.00
2022-10-09T21:30:30.118Z,72.00
2022-10-09T21:32:30.134Z,72.00
2022-10-09T21:34:30.120Z,72.00
2022-10-09T21:36:30.196Z,72.00
2022-10-09T21:38:30.142Z,72.00
2022-10-09T21:40:30.133Z,72.00
2022-10-09T21:42:30.158Z,72.00
2022-10-09T21:44:30.236Z,72.00
2022-10-09T21:46:30.154Z,72.00
2022-10-09T21:48:30.162Z,72.00
2022-10-09T21:50:30.174Z,72.00
2022-10-09T21:52:30.149Z,73.00
2022-10-09T21:54:30.177Z,73.00
2022-10-09T21:56:30.124Z,74.00
2022-10-09T21:58:30.120Z,74.00
2022-10-09T22:00:30.159Z,74.00
2022-10-09T22:02:30.183Z,74.00
2022-10-09T22:04:30.142Z,74.00
2022-10-09T22:06:30.145Z,74.00
2022-10-09T22:08:30.142Z,74.00
2022-10-09T22:10:30.156Z,74.00
2022-10-09T22:12:30.173Z,74.00
2022-10-09T22:14:30.124Z,74.00
2022-10-09T22:16:30.168Z,74.00
2022-10-09T22:18:30.128Z,74.00
2022-10-09T22:20:30.170Z,74.00
2022-10-09T22:22:30.155Z,74.00
2022-10-09T22:24:30.167Z,74.00
2022-10-09T22:26:30.216Z,74.00
2022-10-09T22:28:30.360Z,74.00
2022-10-09T22:30:30.174Z,74.00
2022-10-09T22:32:30.210Z,74.00
2022-10-09T22:34:30.161Z,74.00
2022-10-09T22:36:30.205Z,74.00
2022-10-09T22:38:30.160Z,74.00
2022-10-09T22:40:30.164Z,74.00
2022-10-09T22:42:30.261Z,75.00
2022-10-09T22:44:30.151Z,75.00
2022-10-09T22:46:30.324Z,75.00
2022-10-09T22:48:30.165Z,75.00
2022-10-09T22:50:30.165Z,75.00
2022-10-09T22:53:00.177Z,75.00
2022-10-09T22:55:00.186Z,75.00
2022-10-09T22:57:00.165Z,76.00
2022-10-09T22:59:00.165Z,76.00
2022-10-09T23:01:01.299Z,76.00
2022-10-09T23:03:00.256Z,76.00
2022-10-09T23:05:00.190Z,76.00
2022-10-09T23:07:00.231Z,76.00
2022-10-09T23:09:00.330Z,76.00
2022-10-09T23:11:00.237Z,76.00
2022-10-09T23:13:00.417Z,76.00
2022-10-09T23:15:00.161Z,76.00
2022-10-09T23:17:00.264Z,76.00
2022-10-09T23:19:04.175Z,76.00
2022-10-09T23:21:00.284Z,76.00
2022-10-09T23:23:00.250Z,77.00
2022-10-09T23:25:00.206Z,77.00
2022-10-09T23:27:00.253Z,77.00
2022-10-09T23:29:00.284Z,77.00
2022-10-09T23:31:00.488Z,77.00
2022-10-09T23:33:00.274Z,77.00
2022-10-09T23:35:00.238Z,77.00
2022-10-09T23:41:08.620Z,77.00
2022-10-09T23:43:08.667Z,77.00
2022-10-09T23:45:08.658Z,77.00
2022-10-09T23:47:08.669Z,77.00
2022-10-09T23:49:08.704Z,78.00
2022-10-09T23:51:08.635Z,78.00
2022-10-09T23:53:08.691Z,78.00
2022-10-09T23:55:08.688Z,78.00
2022-10-09T23:57:08.683Z,78.00
2022-10-09T23:59:08.685Z,78.00
